Aérodrome :
LOGIN :

S'inscrire | Disclaimer

   EN    FR    IT 

 










Légende :    VFR   VFR Marginal   IFR   IFR Intensif   IFR Très Intensif
Visi : 
Plafond : 
>= 8 km
>= 3000ft
5 à 8 km
1000 à 3000 ft
1500m à 5 km
500 à 1000 ft
800 à 1500m
200 à 500 ft
< 800m
< 200 ft
Symboles :   Orages  Brouillard  Fortes neiges  Fortes précipitations  Vent > 20 kt
SIGMETs :   Divers  Orages  Givrage  Turbulence  Onde Orograph.  Cendres Volcan.







- Altitude de l'aérodrome : 119 ft
- Code IATA : WAT


EIWF - Waterford

DERNIER METAR :
  • 141830Z 34014KT 310V010 CAVOK 04/02 Q0992 R03/1/////

METARs EXPIRÉS :
  • 141800Z 33018KT 290V350 9999 SCT024 05/03 Q0992 R03/1/////
  • 141730Z 33017G28KT 280V360 9999 SCT024 05/02 Q0991 R03/1/////
  • 141700Z 33015KT 290V360 9999 SCT024 05/02 Q0991 R03/1/////
  • 141630Z 33018G28KT 290V360 9999 SCT024 05/03 Q0990 R03/1/////
  • 141600Z 34020G30KT 310V020 9999 SCT025 05/03 Q0989 R03/1/////

TAF TAF EIWF
Valide du 14 à 18h jusqu'au 15 à 03h UTC


141700Z 1418/1503 32017G28KT 9999 SCT020 BKN030
TEMPO 1418/1502 33022G35KT
ATIS : +353 51 877 000
Pas de NOTAMs connus pour ce terrain.
2 SIGMETs publiés pour la FIR Shannon (EISN) :
 
Turbulence forte
EISN SIGMET 12 VALID 141700/141900 EINN
EISN SHANNON FIR SEV TURB FCST N5140 W00930 - N5140 W00643 - N5100 W00800 - N5100 W00930 - N5140 W00930 SFC/FL060 MOV SE AT 40KT NC=
Turbulence forte
EISN SIGMET 11 VALID 141700/142100 EINN
EISN SHANNON FIR SEV TURB FCST WI N5432 W01000 - N5140 W00930 - N5100 W00930 - N5100 W01500 - N5400 W01500 - N5432 W01000 SFC/FL060 MOV SE AT 40KT NC=



MET'MAP, la Météo Aéronautique d'un coup d'oeil ! - Copyright ORBIFLY Décembre 2007 - Disclaimer

ORBIFLY MET'MAP TEAM :

Programmation & Développement : Alexandra Zaïnal
Conception & Développement : Baudouin d'Aumeries
Co-Programmation & Développement : Marc-Olivier Méhu
Soutien technique & logistique : Manuel Goepfert

Contact : metmap@orbifly.com




SOURCES & CREDITS :

   NOAA